Terminal Aerodrome Forecast
Issued by NWS

Home | Current Version | Previous Version | Text Only | Print | Product List | Glossary On
Versions: 1 2 3 4 5 6 7 8 9 10 11 12 13 14 15 16 17 18 19 20 21 22 23 24 25 26 27
161
FTUS43 KLSX 051040 AAC
TAFUIN
TAF AMD
KUIN 051040Z 0511/0606 24005KT 1SM BR VV002
      TEMPO 0511/0514 1/4SM FG VV001
     FM051600 21004KT 1SM BR BKN003
     FM051800 16008KT P6SM SCT250=

USA.gov is the U.S. government's official web portal to all federal, state and local government web resources and services.